Caribbean Sina — V2BG4 — position and weather

sailwx.info

Track history (hours):
 
Tides and Currents Weather Stations Pressure Air Temp Water Temp Dewpoint Dewpoint Depression Visibility Wind Speed Wind Dir Waves Ship Positions

Caribbean Sina

Last reported at 2017-Nov-16 13:15 UTC. Time now 2017-Nov-18 01:18 UTC.
Position N 27°32' W 015°16'.

Length 100 m; draft 5 m.

Type: Cargo ship. MMSI: 304578000.

Date/timePositionNaut miles runAvg speedWind from/ knotsBaromVisibWave heightAir tempDewpointWater temp
2017-Nov-16 13:15N 27°32' W 015°16'312.2
2017-Nov-16 13:00N 27°35' W 015°16'611.5
2017-Nov-16 12:30N 27°41' W 015°16'611.2
2017-Nov-16 12:00N 27°46' W 015°16'611.8
2017-Nov-16 11:29N 27°52' W 015°16'612.3
2017-Nov-16 11:00N 27°58' W 015°16'611.8
2017-Nov-16 10:30N 28°04' W 015°19'5 9.7
2017-Nov-16 10:00N 28°06' W 015°23'2 4.4
2017-Nov-16 09:31N 28°08' W 015°25'0 0.0
2017-Nov-16 08:59N 28°08' W 015°25'0 0.0
2017-Nov-16 08:29N 28°08' W 015°25'0 0.0
2017-Nov-16 07:59N 28°08' W 015°25'0 0.0
2017-Nov-16 07:30N 28°08' W 015°25'0 0.0
2017-Nov-16 07:00N 28°08' W 015°25'0 0.0
2017-Nov-16 06:30N 28°08' W 015°25'0 0.0
2017-Nov-16 06:00N 28°08' W 015°25'0 0.0
2017-Nov-16 05:29N 28°08' W 015°25'0 0.0
2017-Nov-16 04:59N 28°08' W 015°25'0 0.0
2017-Nov-16 04:17N 28°08' W 015°25'0 0.0
2017-Nov-16 03:47N 28°08' W 015°25'0 0.0
2017-Nov-16 03:20N 28°08' W 015°25'0 0.0
2017-Nov-16 02:53N 28°08' W 015°25'0 0.0
2017-Nov-16 02:23N 28°08' W 015°25'0 0.0
2017-Nov-16 01:53N 28°08' W 015°25'0 0.0
2017-Nov-16 01:23N 28°08' W 015°25'0 0.0
2017-Nov-16 00:53N 28°08' W 015°25'0 0.0
2017-Nov-16 00:23N 28°08' W 015°25'0 0.1
2017-Nov-16 00:00N 28°08' W 015°25'2 4.5
2017-Nov-15 23:30N 28°07' W 015°23'0 0.9
2017-Nov-15 23:00N 28°07' W 015°22'5 9.7
2017-Nov-15 22:30N 28°03' W 015°19'510.1
2017-Nov-15 22:00N 27°59' W 015°17'510.5
2017-Nov-15 21:30N 27°53' W 015°18'510.7
2017-Nov-15 21:00N 27°48' W 015°19'611.3
2017-Nov-15 20:30N 27°43' W 015°20'3 0.8
2017-Nov-15 16:41N 27°39' W 015°19'0 1.4
2017-Nov-15 16:26N 27°40' W 015°19'1 1.2
2017-Nov-15 15:52N 27°40' W 015°19'0 1.1
2017-Nov-15 15:30N 27°41' W 015°18'1 1.0
2017-Nov-15 14:59N 27°41' W 015°18'0 0.9
2017-Nov-15 14:28N 27°41' W 015°17'0 0.9
2017-Nov-15 14:00N 27°42' W 015°17'0 0.9
2017-Nov-15 13:30N 27°42' W 015°17'0 0.7
2017-Nov-15 13:00N 27°42' W 015°16'1 1.5
2017-Nov-15 12:30N 27°43' W 015°16'3 5.1
2017-Nov-15 12:00N 27°40' W 015°16'611.4
2017-Nov-15 11:30N 27°34' W 015°16'  
2017-Nov-07 06:27N 27°29' W 015°18'612.9
2017-Nov-07 06:00N 27°34' W 015°18'612.8
2017-Nov-07 05:30N 27°41' W 015°17'612.9
2017-Nov-07 05:00N 27°47' W 015°17'713.4
2017-Nov-07 04:30N 27°54' W 015°17'713.1
2017-Nov-07 04:00N 28°00' W 015°17'713.1
2017-Nov-07 03:30N 28°06' W 015°21'4 8.2
2017-Nov-07 03:00N 28°08' W 015°25'0 0.1
2017-Nov-07 02:29N 28°08' W 015°25'0 0.0
2017-Nov-07 01:59N 28°08' W 015°25'0 0.0
2017-Nov-07 01:29N 28°08' W 015°25'0 0.0
2017-Nov-07 00:50N 28°08' W 015°25'0 0.0
2017-Nov-07 00:20N 28°08' W 015°25'0 0.0
2017-Nov-06 23:47N 28°08' W 015°25'0 0.0
2017-Nov-06 23:23N 28°08' W 015°25'0 0.0
2017-Nov-06 22:53N 28°08' W 015°25'0 0.0
2017-Nov-06 22:23N 28°08' W 015°25'0 0.0
2017-Nov-06 21:53N 28°08' W 015°25'0 0.0
2017-Nov-06 21:23N 28°08' W 015°25'0 0.0
2017-Nov-06 20:56N 28°08' W 015°25'0 0.0
2017-Nov-06 20:26N 28°08' W 015°25'  
Track history (hours):
 
Tides and Currents Weather Stations Pressure Air Temp Water Temp Dewpoint Dewpoint Depression Visibility Wind Speed Wind Dir Waves Ship Positions

Caribbean Sina

Last reported at 2017-Nov-16 13:15 UTC. Time now 2017-Nov-18 01:18 UTC.
Position N 27°32' W 015°16'.

Length 100 m; draft 5 m.

Type: Cargo ship. MMSI: 304578000.

Date/timePositionNaut miles runAvg speedWind from/ knotsBaromVisibWave heightAir tempDewpointWater temp
2017-Nov-16 13:15N 27°32' W 015°16'312.2
2017-Nov-16 13:00N 27°35' W 015°16'611.5
2017-Nov-16 12:30N 27°41' W 015°16'611.2
2017-Nov-16 12:00N 27°46' W 015°16'611.8
2017-Nov-16 11:29N 27°52' W 015°16'612.3
2017-Nov-16 11:00N 27°58' W 015°16'611.8
2017-Nov-16 10:30N 28°04' W 015°19'5 9.7
2017-Nov-16 10:00N 28°06' W 015°23'2 4.4
2017-Nov-16 09:31N 28°08' W 015°25'0 0.0
2017-Nov-16 08:59N 28°08' W 015°25'0 0.0
2017-Nov-16 08:29N 28°08' W 015°25'0 0.0
2017-Nov-16 07:59N 28°08' W 015°25'0 0.0
2017-Nov-16 07:30N 28°08' W 015°25'0 0.0
2017-Nov-16 07:00N 28°08' W 015°25'0 0.0
2017-Nov-16 06:30N 28°08' W 015°25'0 0.0
2017-Nov-16 06:00N 28°08' W 015°25'0 0.0
2017-Nov-16 05:29N 28°08' W 015°25'0 0.0
2017-Nov-16 04:59N 28°08' W 015°25'0 0.0
2017-Nov-16 04:17N 28°08' W 015°25'0 0.0
2017-Nov-16 03:47N 28°08' W 015°25'0 0.0
2017-Nov-16 03:20N 28°08' W 015°25'0 0.0
2017-Nov-16 02:53N 28°08' W 015°25'0 0.0
2017-Nov-16 02:23N 28°08' W 015°25'0 0.0
2017-Nov-16 01:53N 28°08' W 015°25'0 0.0
2017-Nov-16 01:23N 28°08' W 015°25'0 0.0
2017-Nov-16 00:53N 28°08' W 015°25'0 0.0
2017-Nov-16 00:23N 28°08' W 015°25'0 0.1
2017-Nov-16 00:00N 28°08' W 015°25'2 4.5
2017-Nov-15 23:30N 28°07' W 015°23'0 0.9
2017-Nov-15 23:00N 28°07' W 015°22'5 9.7
2017-Nov-15 22:30N 28°03' W 015°19'510.1
2017-Nov-15 22:00N 27°59' W 015°17'510.5
2017-Nov-15 21:30N 27°53' W 015°18'510.7
2017-Nov-15 21:00N 27°48' W 015°19'611.3
2017-Nov-15 20:30N 27°43' W 015°20'3 0.8
2017-Nov-15 16:41N 27°39' W 015°19'0 1.4
2017-Nov-15 16:26N 27°40' W 015°19'1 1.2
2017-Nov-15 15:52N 27°40' W 015°19'0 1.1
2017-Nov-15 15:30N 27°41' W 015°18'1 1.0
2017-Nov-15 14:59N 27°41' W 015°18'0 0.9
2017-Nov-15 14:28N 27°41' W 015°17'0 0.9
2017-Nov-15 14:00N 27°42' W 015°17'0 0.9
2017-Nov-15 13:30N 27°42' W 015°17'0 0.7
2017-Nov-15 13:00N 27°42' W 015°16'1 1.5
2017-Nov-15 12:30N 27°43' W 015°16'3 5.1
2017-Nov-15 12:00N 27°40' W 015°16'611.4
2017-Nov-15 11:30N 27°34' W 015°16'  
2017-Nov-07 06:27N 27°29' W 015°18'612.9
2017-Nov-07 06:00N 27°34' W 015°18'612.8
2017-Nov-07 05:30N 27°41' W 015°17'612.9
2017-Nov-07 05:00N 27°47' W 015°17'713.4
2017-Nov-07 04:30N 27°54' W 015°17'713.1
2017-Nov-07 04:00N 28°00' W 015°17'713.1
2017-Nov-07 03:30N 28°06' W 015°21'4 8.2
2017-Nov-07 03:00N 28°08' W 015°25'0 0.1
2017-Nov-07 02:29N 28°08' W 015°25'0 0.0
2017-Nov-07 01:59N 28°08' W 015°25'0 0.0
2017-Nov-07 01:29N 28°08' W 015°25'0 0.0
2017-Nov-07 00:50N 28°08' W 015°25'0 0.0
2017-Nov-07 00:20N 28°08' W 015°25'0 0.0
2017-Nov-06 23:47N 28°08' W 015°25'0 0.0
2017-Nov-06 23:23N 28°08' W 015°25'0 0.0
2017-Nov-06 22:53N 28°08' W 015°25'0 0.0
2017-Nov-06 22:23N 28°08' W 015°25'0 0.0
2017-Nov-06 21:53N 28°08' W 015°25'0 0.0
2017-Nov-06 21:23N 28°08' W 015°25'0 0.0
2017-Nov-06 20:56N 28°08' W 015°25'0 0.0
2017-Nov-06 20:26N 28°08' W 015°25'  

Dump ship's entire track history